createdAt,value
2023-05-16T00:01:22.097Z,19.20
2023-05-16T00:03:48.967Z,19.20
2023-05-16T00:06:16.833Z,19.30
2023-05-16T00:08:43.600Z,19.00
2023-05-16T00:11:10.346Z,19.10
2023-05-16T00:13:37.516Z,18.80
2023-05-16T00:16:05.191Z,19.00
2023-05-16T00:18:31.875Z,19.00
2023-05-16T00:20:59.527Z,18.90
2023-05-16T00:23:26.233Z,19.20
2023-05-16T00:25:53.069Z,19.40
2023-05-16T00:28:19.860Z,19.10
2023-05-16T00:30:46.570Z,18.80
2023-05-16T00:33:13.222Z,18.80
2023-05-16T00:35:40.287Z,19.30
2023-05-16T00:38:07.329Z,19.30
2023-05-16T00:40:33.921Z,19.00
2023-05-16T00:43:00.603Z,19.00
2023-05-16T00:45:27.726Z,19.00
2023-05-16T00:47:54.771Z,19.10
2023-05-16T00:50:21.726Z,18.80
2023-05-16T00:52:49.493Z,18.80
2023-05-16T00:55:16.456Z,18.90
2023-05-16T00:57:43.277Z,18.80
2023-05-16T01:00:10.695Z,18.60
2023-05-16T01:02:38.469Z,18.70
2023-05-16T01:05:05.535Z,18.50
2023-05-16T01:07:32.222Z,18.80
2023-05-16T01:09:59.731Z,18.90
2023-05-16T01:12:56.823Z,19.00
2023-05-16T01:15:32.581Z,19.30
2023-05-16T01:18:23.963Z,19.20
2023-05-16T01:21:04.928Z,18.70
2023-05-16T01:23:50.417Z,18.80
2023-05-16T01:26:22.764Z,18.70
2023-05-16T01:28:51.387Z,18.70
2023-05-16T01:31:20.218Z,18.80
2023-05-16T01:33:47.593Z,18.80
2023-05-16T01:36:26.604Z,18.70
2023-05-16T01:39:09.343Z,18.90
2023-05-16T01:41:54.855Z,19.30
2023-05-16T01:44:43.325Z,19.10
2023-05-16T01:47:13.224Z,19.00
2023-05-16T01:49:47.830Z,18.80
2023-05-16T01:52:42.935Z,18.90
2023-05-16T01:55:14.923Z,19.10
2023-05-16T01:57:43.233Z,19.10
2023-05-16T02:00:10.836Z,18.80
2023-05-16T02:02:40.873Z,19.00
2023-05-16T02:05:09.191Z,19.20
2023-05-16T02:07:36.439Z,19.00
2023-05-16T02:10:04.826Z,18.80
2023-05-16T02:12:35.270Z,19.00
2023-05-16T02:15:01.901Z,19.40
2023-05-16T02:17:28.579Z,19.50
2023-05-16T02:19:55.476Z,19.00
2023-05-16T02:22:22.195Z,18.70
2023-05-16T02:24:48.790Z,18.80
2023-05-16T02:27:15.610Z,19.00
2023-05-16T02:29:42.342Z,19.20
2023-05-16T02:32:09.070Z,19.40
2023-05-16T02:34:35.659Z,19.20
2023-05-16T02:37:02.290Z,18.90
2023-05-16T02:39:29.961Z,19.00
2023-05-16T02:41:56.658Z,19.20
2023-05-16T02:44:23.326Z,19.30
2023-05-16T02:46:49.949Z,19.20
2023-05-16T02:49:16.975Z,18.90
2023-05-16T02:51:45.143Z,18.80
2023-05-16T02:54:11.816Z,18.70
2023-05-16T02:56:38.785Z,19.00
2023-05-16T02:59:05.567Z,19.20
2023-05-16T03:01:32.272Z,18.90
2023-05-16T03:03:59.617Z,19.10
2023-05-16T03:06:26.358Z,19.00
2023-05-16T03:08:52.966Z,19.30
2023-05-16T03:11:25.876Z,19.30
2023-05-16T03:13:52.473Z,19.10
2023-05-16T03:16:19.197Z,18.80
2023-05-16T03:18:45.973Z,19.00
2023-05-16T03:21:12.637Z,19.20
2023-05-16T03:23:39.240Z,19.10
2023-05-16T03:26:05.941Z,19.20
2023-05-16T03:28:32.534Z,19.10
2023-05-16T03:30:59.160Z,18.80
2023-05-16T03:33:26.273Z,19.10
2023-05-16T03:35:52.927Z,19.30
2023-05-16T03:38:19.668Z,19.10
2023-05-16T03:40:47.508Z,19.00
2023-05-16T03:43:14.247Z,19.00
2023-05-16T03:45:40.953Z,18.80
2023-05-16T03:48:09.183Z,18.80
2023-05-16T03:50:39.456Z,18.80
2023-05-16T03:53:07.628Z,18.80
2023-05-16T03:55:34.680Z,19.00
2023-05-16T03:58:01.374Z,19.20
2023-05-16T04:00:28.189Z,18.80
2023-05-16T04:02:55.187Z,19.00
2023-05-16T04:05:21.920Z,19.00
2023-05-16T04:07:48.542Z,18.70
2023-05-16T04:10:15.207Z,18.50
2023-05-16T04:12:41.784Z,18.50
2023-05-16T04:15:08.764Z,18.70
2023-05-16T04:17:35.535Z,18.70
2023-05-16T04:20:03.550Z,18.80
2023-05-16T04:22:30.652Z,18.60
2023-05-16T04:24:57.339Z,18.60
2023-05-16T04:27:23.992Z,18.60
2023-05-16T04:29:50.648Z,18.80
2023-05-16T04:32:17.406Z,18.60
2023-05-16T04:34:46.583Z,18.40
2023-05-16T04:37:13.195Z,18.50
2023-05-16T04:39:39.822Z,18.80
2023-05-16T04:42:06.933Z,19.00
2023-05-16T04:44:34.352Z,18.70
2023-05-16T04:47:01.595Z,18.40
2023-05-16T04:49:28.653Z,18.70
2023-05-16T04:51:55.283Z,18.40
2023-05-16T04:54:21.923Z,18.60
2023-05-16T04:56:48.542Z,18.60
2023-05-16T04:59:15.233Z,18.70
2023-05-16T05:01:42.024Z,18.60
2023-05-16T05:04:08.823Z,18.90
2023-05-16T05:06:35.472Z,18.70
2023-05-16T05:09:02.075Z,18.30
2023-05-16T05:11:28.927Z,17.90
2023-05-16T05:13:55.585Z,18.10
2023-05-16T05:16:22.286Z,18.50
2023-05-16T05:18:49.068Z,18.50
2023-05-16T05:21:15.770Z,18.10
2023-05-16T05:23:42.427Z,18.10
2023-05-16T05:26:09.228Z,18.10
2023-05-16T05:28:37.608Z,18.20
2023-05-16T05:31:08.139Z,18.30
2023-05-16T05:33:34.871Z,18.60
2023-05-16T05:36:03.870Z,18.80
2023-05-16T05:38:30.853Z,18.60
2023-05-16T05:40:57.546Z,18.10
2023-05-16T05:43:24.315Z,18.20
2023-05-16T05:45:51.182Z,18.70
2023-05-16T05:48:18.039Z,18.60
2023-05-16T05:50:44.706Z,18.30
2023-05-16T05:53:12.349Z,18.20
2023-05-16T05:55:41.647Z,18.30
2023-05-16T05:58:09.035Z,18.30
2023-05-16T06:00:36.043Z,18.40
2023-05-16T06:03:02.812Z,18.60
2023-05-16T06:05:29.813Z,18.60
2023-05-16T06:07:56.641Z,18.90
2023-05-16T06:10:23.450Z,18.80
2023-05-16T06:12:50.137Z,19.00
2023-05-16T06:15:16.948Z,19.20
2023-05-16T06:17:43.638Z,19.00
2023-05-16T06:20:11.240Z,19.00
2023-05-16T06:22:37.948Z,19.20
2023-05-16T06:25:04.796Z,19.00
2023-05-16T06:27:31.534Z,18.80
2023-05-16T06:29:58.358Z,19.00
2023-05-16T06:32:25.003Z,19.20
2023-05-16T06:34:51.848Z,19.30
2023-05-16T06:37:18.602Z,19.20
2023-05-16T06:39:45.337Z,19.00
2023-05-16T06:42:12.961Z,18.70
2023-05-16T06:44:39.782Z,18.60
2023-05-16T06:47:06.574Z,18.70
2023-05-16T06:49:33.953Z,18.20
2023-05-16T06:52:00.878Z,18.30
2023-05-16T06:54:27.580Z,17.90
2023-05-16T06:56:54.228Z,17.80
2023-05-16T06:59:21.034Z,17.80
2023-05-16T07:01:47.830Z,18.10
2023-05-16T07:04:15.408Z,18.20
2023-05-16T07:06:42.475Z,18.00
2023-05-16T07:09:09.430Z,18.00
2023-05-16T07:11:36.097Z,18.10
2023-05-16T07:14:02.778Z,18.30
2023-05-16T07:16:29.499Z,18.60
2023-05-16T07:18:56.439Z,18.20
2023-05-16T07:21:23.089Z,18.10
2023-05-16T07:23:49.939Z,17.90
2023-05-16T07:26:16.782Z,17.80
2023-05-16T07:28:43.494Z,18.30
2023-05-16T07:31:10.381Z,18.60
2023-05-16T07:33:37.051Z,18.90
2023-05-16T07:36:15.414Z,19.00
2023-05-16T07:38:44.153Z,19.10
2023-05-16T07:41:10.917Z,19.00
2023-05-16T07:43:37.593Z,18.80
2023-05-16T07:46:04.864Z,18.50
2023-05-16T07:48:31.624Z,18.60
2023-05-16T07:50:58.317Z,18.80
2023-05-16T07:53:25.152Z,18.80
2023-05-16T07:55:51.858Z,18.80
2023-05-16T07:58:18.570Z,18.90
2023-05-16T08:00:45.707Z,18.80
2023-05-16T08:03:12.610Z,18.90
2023-05-16T08:05:39.816Z,18.80
2023-05-16T08:08:06.706Z,18.60
2023-05-16T08:10:33.442Z,18.50
2023-05-16T08:13:00.344Z,18.60
2023-05-16T08:15:28.258Z,19.00
2023-05-16T08:17:58.645Z,18.70
2023-05-16T08:20:26.289Z,18.40
2023-05-16T08:22:53.204Z,18.70
2023-05-16T08:25:20.687Z,18.80
2023-05-16T08:27:49.830Z,18.90
2023-05-16T08:30:16.795Z,18.80
2023-05-16T08:32:43.666Z,18.70
2023-05-16T08:35:11.221Z,18.90
2023-05-16T08:37:37.963Z,18.40
2023-05-16T08:40:10.543Z,18.70
2023-05-16T08:42:38.213Z,18.80
2023-05-16T08:45:06.471Z,18.90
2023-05-16T08:47:34.516Z,18.90
2023-05-16T08:50:03.902Z,19.00
2023-05-16T08:52:33.426Z,18.70
2023-05-16T08:55:11.148Z,18.60
2023-05-16T08:57:39.502Z,18.80
2023-05-16T09:00:12.100Z,19.00
2023-05-16T09:02:43.423Z,19.20
2023-05-16T09:05:13.715Z,19.40
2023-05-16T09:07:41.696Z,19.50
2023-05-16T09:10:08.798Z,19.40
2023-05-16T09:12:36.063Z,19.10
2023-05-16T09:15:06.737Z,18.80
2023-05-16T09:17:39.871Z,18.30
2023-05-16T09:20:18.819Z,18.30
2023-05-16T09:22:54.541Z,18.40
2023-05-16T09:25:30.293Z,18.80
2023-05-16T09:28:01.683Z,19.00
2023-05-16T09:30:31.386Z,19.20
2023-05-16T09:32:59.119Z,19.30
2023-05-16T09:35:43.296Z,19.10
2023-05-16T09:38:17.069Z,18.80
2023-05-16T09:40:44.952Z,19.10
2023-05-16T09:43:16.518Z,19.20
2023-05-16T09:45:47.571Z,19.00
2023-05-16T09:48:15.432Z,19.10
2023-05-16T09:50:54.146Z,19.00
2023-05-16T09:53:27.934Z,18.80
2023-05-16T09:56:07.818Z,18.60
2023-05-16T09:58:36.162Z,18.90
2023-05-16T10:01:03.456Z,19.00
2023-05-16T10:03:30.724Z,19.10
2023-05-16T10:05:57.587Z,19.20
2023-05-16T10:08:26.514Z,19.40
2023-05-16T10:10:56.969Z,19.30
2023-05-16T10:13:28.239Z,19.20
2023-05-16T10:15:59.901Z,18.90
2023-05-16T10:18:31.739Z,18.90
2023-05-16T10:21:07.300Z,18.90
2023-05-16T10:23:36.490Z,18.80
2023-05-16T10:26:06.007Z,18.80
2023-05-16T10:28:33.099Z,18.50
2023-05-16T10:31:01.667Z,18.50
2023-05-16T10:33:29.155Z,18.20
2023-05-16T10:35:56.388Z,18.30
2023-05-16T10:38:24.686Z,18.20
2023-05-16T10:40:51.767Z,18.30
2023-05-16T10:43:27.410Z,18.70
2023-05-16T10:45:56.261Z,18.50
2023-05-16T10:48:35.250Z,18.30
2023-05-16T10:51:03.920Z,18.60
2023-05-16T10:53:34.467Z,18.90
2023-05-16T10:56:04.053Z,19.00
2023-05-16T10:58:34.954Z,19.10
2023-05-16T11:01:22.027Z,18.70
2023-05-16T11:03:58.368Z,18.50
2023-05-16T11:06:45.375Z,18.50
2023-05-16T11:09:13.325Z,18.40
2023-05-16T11:11:49.675Z,18.60
2023-05-16T11:14:23.695Z,18.50
2023-05-16T11:16:52.107Z,18.40
2023-05-16T11:19:45.060Z,18.60
2023-05-16T11:22:23.943Z,18.90
2023-05-16T11:24:58.224Z,18.90
2023-05-16T11:27:30.899Z,18.80
2023-05-16T11:30:12.844Z,18.90
2023-05-16T11:32:41.728Z,19.00
2023-05-16T11:35:14.233Z,19.10
2023-05-16T11:37:42.210Z,19.10
2023-05-16T11:40:11.418Z,19.00
2023-05-16T11:42:42.053Z,18.80
2023-05-16T11:45:17.140Z,18.90
2023-05-16T11:47:46.394Z,19.00
2023-05-16T11:50:21.934Z,19.10
2023-05-16T11:52:53.427Z,19.10
2023-05-16T11:55:36.850Z,19.10
2023-05-16T11:58:06.954Z,19.00
2023-05-16T12:00:33.621Z,19.10
2023-05-16T12:03:04.569Z,19.20
2023-05-16T12:05:32.869Z,19.20
2023-05-16T12:08:00.190Z,19.30
2023-05-16T12:10:27.211Z,19.00
2023-05-16T12:12:54.720Z,19.20
2023-05-16T12:15:21.623Z,19.20
2023-05-16T12:17:48.689Z,19.40
2023-05-16T12:20:16.510Z,19.40
2023-05-16T12:22:45.121Z,19.40
2023-05-16T12:25:32.417Z,19.30
2023-05-16T12:28:04.497Z,19.30
2023-05-16T12:30:32.891Z,19.40
2023-05-16T12:32:59.741Z,19.40
2023-05-16T12:35:32.096Z,19.20
2023-05-16T12:38:00.044Z,19.30
2023-05-16T12:40:30.705Z,19.40
2023-05-16T12:42:58.052Z,19.50
2023-05-16T12:45:27.259Z,19.40
2023-05-16T12:47:54.097Z,19.50
2023-05-16T12:50:20.873Z,19.60
2023-05-16T12:52:49.411Z,19.60
2023-05-16T12:55:17.351Z,19.70
2023-05-16T12:57:45.202Z,19.60
2023-05-16T13:00:13.495Z,19.60
2023-05-16T13:02:41.133Z,19.50
2023-05-16T13:05:08.292Z,19.30
2023-05-16T13:07:35.142Z,19.40
2023-05-16T13:10:02.308Z,19.40
2023-05-16T13:12:29.004Z,19.40
2023-05-16T13:14:55.973Z,19.50
2023-05-16T13:17:23.882Z,19.50
2023-05-16T13:19:51.496Z,19.60
2023-05-16T13:22:18.261Z,19.60
2023-05-16T13:24:45.005Z,19.70
2023-05-16T13:27:11.662Z,19.60
2023-05-16T13:29:38.307Z,19.60
2023-05-16T13:32:06.014Z,19.60
2023-05-16T13:34:33.056Z,19.60
2023-05-16T13:37:00.029Z,19.60
2023-05-16T13:39:26.778Z,19.70
2023-05-16T13:41:53.714Z,19.70
2023-05-16T13:44:21.459Z,19.40
2023-05-16T13:46:48.432Z,19.30
2023-05-16T13:49:15.145Z,19.40
2023-05-16T13:51:41.864Z,19.40
2023-05-16T13:54:08.681Z,19.40
2023-05-16T13:56:35.394Z,19.40
2023-05-16T13:59:06.413Z,19.40
2023-05-16T14:01:36.746Z,19.50
2023-05-16T14:04:04.147Z,19.40
2023-05-16T14:06:31.334Z,19.30
2023-05-16T14:08:58.025Z,19.20
2023-05-16T14:11:29.129Z,18.90
2023-05-16T14:13:57.378Z,18.80
2023-05-16T14:16:24.096Z,19.10
2023-05-16T14:18:51.258Z,19.10
2023-05-16T14:21:18.063Z,19.20
2023-05-16T14:23:44.718Z,18.90
2023-05-16T14:26:11.419Z,18.70
2023-05-16T14:28:38.071Z,18.80
2023-05-16T14:31:05.858Z,18.70
2023-05-16T14:33:33.310Z,18.60
2023-05-16T14:36:00.156Z,18.80
2023-05-16T14:38:28.025Z,18.90
2023-05-16T14:40:54.669Z,18.90
2023-05-16T14:43:21.367Z,18.90
2023-05-16T14:45:48.060Z,18.90
2023-05-16T14:48:15.180Z,19.00
2023-05-16T14:50:41.913Z,19.30
2023-05-16T14:53:08.931Z,19.10
2023-05-16T14:55:35.890Z,19.10
2023-05-16T14:58:02.622Z,19.10
2023-05-16T15:00:29.615Z,19.00
2023-05-16T15:02:56.689Z,18.90
2023-05-16T15:05:25.574Z,19.00
2023-05-16T15:07:52.327Z,19.10
2023-05-16T15:10:19.504Z,18.80
2023-05-16T15:12:46.197Z,18.90
2023-05-16T15:15:14.924Z,19.00
2023-05-16T15:17:43.221Z,18.90
2023-05-16T15:20:11.563Z,19.00
2023-05-16T15:22:41.554Z,19.10
2023-05-16T15:25:09.401Z,19.30
2023-05-16T15:27:36.127Z,19.30
2023-05-16T15:30:03.323Z,19.10
2023-05-16T15:32:30.134Z,19.10
2023-05-16T15:34:57.643Z,19.20
2023-05-16T15:37:24.350Z,19.00
2023-05-16T15:39:51.087Z,19.10
2023-05-16T15:42:19.802Z,19.30
2023-05-16T15:44:46.606Z,19.30
2023-05-16T15:47:13.410Z,19.10
2023-05-16T15:49:40.044Z,19.10
2023-05-16T15:52:06.871Z,18.80
2023-05-16T15:54:33.783Z,18.70
2023-05-16T15:57:00.707Z,18.60
2023-05-16T15:59:27.727Z,18.50
2023-05-16T16:01:54.562Z,18.60
2023-05-16T16:04:23.427Z,18.80
2023-05-16T16:06:50.511Z,19.10
2023-05-16T16:09:17.570Z,19.10
2023-05-16T16:11:44.320Z,19.20
2023-05-16T16:14:11.106Z,19.30
2023-05-16T16:16:40.350Z,19.30
2023-05-16T16:19:08.371Z,19.30
2023-05-16T16:21:36.116Z,19.00
2023-05-16T16:24:03.302Z,19.00
2023-05-16T16:26:31.598Z,19.10
2023-05-16T16:28:58.572Z,19.10
2023-05-16T16:31:25.460Z,19.00
2023-05-16T16:33:52.323Z,18.90
2023-05-16T16:36:19.830Z,19.10
2023-05-16T16:38:46.520Z,18.80
2023-05-16T16:41:14.392Z,18.40
2023-05-16T16:43:41.163Z,18.10
2023-05-16T16:46:08.401Z,17.90
2023-05-16T16:48:36.116Z,18.10
2023-05-16T16:51:03.247Z,18.10
2023-05-16T16:53:30.093Z,18.10
2023-05-16T16:55:56.836Z,18.20
2023-05-16T16:58:23.550Z,18.20
2023-05-16T17:00:50.282Z,18.20
2023-05-16T17:03:17.075Z,18.30
2023-05-16T17:05:44.978Z,18.40
2023-05-16T17:08:12.036Z,18.40
2023-05-16T17:10:39.184Z,18.40
2023-05-16T17:13:10.044Z,18.30
2023-05-16T17:15:37.633Z,18.40
2023-05-16T17:18:08.224Z,18.30
2023-05-16T17:20:36.108Z,18.10
2023-05-16T17:23:03.174Z,18.10
2023-05-16T17:25:30.373Z,18.20
2023-05-16T17:27:57.243Z,18.10
2023-05-16T17:30:23.987Z,18.10
2023-05-16T17:32:50.762Z,18.20
2023-05-16T17:35:18.135Z,18.30
2023-05-16T17:37:46.846Z,18.20
2023-05-16T17:40:16.757Z,18.00
2023-05-16T17:42:44.800Z,17.90
2023-05-16T17:45:13.834Z,18.00
2023-05-16T17:47:40.944Z,17.90
2023-05-16T17:50:10.101Z,17.80
2023-05-16T17:52:38.461Z,17.80
2023-05-16T17:55:07.122Z,17.90
2023-05-16T17:57:34.179Z,17.90
2023-05-16T18:00:01.571Z,17.90
2023-05-16T18:02:28.582Z,17.90
2023-05-16T18:04:55.761Z,17.90
2023-05-16T18:07:22.570Z,17.90
2023-05-16T18:09:49.368Z,17.80
2023-05-16T18:12:16.101Z,17.70
2023-05-16T18:14:45.312Z,17.80
2023-05-16T18:17:13.219Z,17.70
2023-05-16T18:19:40.041Z,17.90
2023-05-16T18:22:08.614Z,17.80
2023-05-16T18:24:35.410Z,18.00
2023-05-16T18:27:02.989Z,18.00
2023-05-16T18:29:30.186Z,18.20
2023-05-16T18:31:57.581Z,18.10
2023-05-16T18:34:24.322Z,18.10
2023-05-16T18:36:51.191Z,18.00
2023-05-16T18:39:18.790Z,17.80
2023-05-16T18:41:47.934Z,17.70
2023-05-16T18:44:16.969Z,17.60
2023-05-16T18:46:46.778Z,17.50
2023-05-16T18:49:14.071Z,17.50
2023-05-16T18:51:41.064Z,17.80
2023-05-16T18:54:07.835Z,17.70
2023-05-16T18:56:34.756Z,17.80
2023-05-16T18:59:01.633Z,17.60
2023-05-16T19:01:28.683Z,17.70
2023-05-16T19:03:55.751Z,17.80
2023-05-16T19:06:22.796Z,17.50
2023-05-16T19:08:49.498Z,17.60
2023-05-16T19:11:17.454Z,17.70
2023-05-16T19:13:45.111Z,17.70
2023-05-16T19:16:11.791Z,17.60
2023-05-16T19:18:38.746Z,17.70
2023-05-16T19:21:07.523Z,17.70
2023-05-16T19:23:34.201Z,17.60
2023-05-16T19:26:00.966Z,17.50
2023-05-16T19:28:27.630Z,17.30
2023-05-16T19:30:54.490Z,17.30
2023-05-16T19:33:21.734Z,17.40
2023-05-16T19:35:51.330Z,17.40
2023-05-16T19:38:19.689Z,17.40
2023-05-16T19:40:46.784Z,17.40
2023-05-16T19:43:13.569Z,17.30
2023-05-16T19:45:40.344Z,17.30
2023-05-16T19:48:07.516Z,17.00
2023-05-16T19:50:34.394Z,17.20
2023-05-16T19:53:01.302Z,17.00
2023-05-16T19:55:29.014Z,17.00
2023-05-16T19:57:56.511Z,17.10
2023-05-16T20:00:23.568Z,17.00
2023-05-16T20:02:50.364Z,17.10
2023-05-16T20:05:22.516Z,17.10
2023-05-16T20:07:49.651Z,17.40
2023-05-16T20:10:17.187Z,17.60
2023-05-16T20:12:44.769Z,17.60
2023-05-16T20:15:12.163Z,17.70
2023-05-16T20:17:40.055Z,17.70
2023-05-16T20:20:08.605Z,17.80
2023-05-16T20:22:38.613Z,17.60
2023-05-16T20:25:09.640Z,17.50
2023-05-16T20:27:36.406Z,17.40
2023-05-16T20:30:06.075Z,17.40
2023-05-16T20:32:33.313Z,17.20
2023-05-16T20:35:01.101Z,17.10
2023-05-16T20:37:27.814Z,17.00
2023-05-16T20:39:54.736Z,16.90
2023-05-16T20:42:21.909Z,16.90
2023-05-16T20:44:48.765Z,16.80
2023-05-16T20:47:16.814Z,16.90
2023-05-16T20:49:43.980Z,16.90
2023-05-16T20:52:10.764Z,16.90
2023-05-16T20:54:37.504Z,17.00
2023-05-16T20:57:04.588Z,17.00
2023-05-16T20:59:31.883Z,17.10
2023-05-16T21:01:58.529Z,17.10
2023-05-16T21:04:25.539Z,17.00
2023-05-16T21:06:52.266Z,17.00
2023-05-16T21:09:19.080Z,17.00
2023-05-16T21:11:45.778Z,16.90
2023-05-16T21:14:12.499Z,16.90
2023-05-16T21:16:39.146Z,16.70
2023-05-16T21:19:05.996Z,16.80
2023-05-16T21:21:32.866Z,16.80
2023-05-16T21:23:59.615Z,16.80
2023-05-16T21:26:26.373Z,16.80
2023-05-16T21:28:55.539Z,16.80
2023-05-16T21:31:22.935Z,16.90
2023-05-16T21:33:52.260Z,16.90
2023-05-16T21:36:20.055Z,16.80
2023-05-16T21:38:47.185Z,16.80
2023-05-16T21:41:14.461Z,16.80
2023-05-16T21:43:41.188Z,16.80
2023-05-16T21:46:07.951Z,16.70
2023-05-16T21:48:34.955Z,16.80
2023-05-16T21:51:01.994Z,16.80
2023-05-16T21:53:28.719Z,16.80
2023-05-16T21:55:55.516Z,16.80
2023-05-16T21:58:22.246Z,16.90
2023-05-16T22:00:49.483Z,16.90
2023-05-16T22:03:18.949Z,16.90
2023-05-16T22:05:48.662Z,16.70
2023-05-16T22:08:15.597Z,16.70
2023-05-16T22:10:42.699Z,16.80
2023-05-16T22:13:09.888Z,16.90
2023-05-16T22:15:36.595Z,16.90
2023-05-16T22:18:03.470Z,17.10
2023-05-16T22:20:30.325Z,17.20
2023-05-16T22:22:57.068Z,16.70
2023-05-16T22:25:23.877Z,16.50
2023-05-16T22:27:50.665Z,16.60
2023-05-16T22:30:17.453Z,16.70
2023-05-16T22:32:45.788Z,16.70
2023-05-16T22:35:13.427Z,16.80
2023-05-16T22:37:40.162Z,16.70
2023-05-16T22:40:08.734Z,16.60
2023-05-16T22:42:35.509Z,16.60
2023-05-16T22:45:02.844Z,16.60
2023-05-16T22:47:29.562Z,16.80
2023-05-16T22:49:56.384Z,17.10
2023-05-16T22:52:23.107Z,16.90
2023-05-16T22:54:49.822Z,16.70
2023-05-16T22:57:16.569Z,16.70
2023-05-16T22:59:43.228Z,16.70
2023-05-16T23:02:09.882Z,16.70
2023-05-16T23:04:36.678Z,16.60
2023-05-16T23:07:03.487Z,16.60
2023-05-16T23:09:30.352Z,16.90
2023-05-16T23:11:57.004Z,17.10
2023-05-16T23:14:23.871Z,17.10
2023-05-16T23:16:50.510Z,16.90
2023-05-16T23:19:17.208Z,16.80
2023-05-16T23:21:44.449Z,17.00
2023-05-16T23:24:11.161Z,17.10
2023-05-16T23:26:37.846Z,17.30
2023-05-16T23:29:04.535Z,17.30
2023-05-16T23:31:31.273Z,17.40
2023-05-16T23:33:58.052Z,17.20
2023-05-16T23:36:24.785Z,17.20
2023-05-16T23:38:51.476Z,17.20
2023-05-16T23:41:18.204Z,17.20
2023-05-16T23:43:44.801Z,17.10
2023-05-16T23:46:11.692Z,17.00
2023-05-16T23:48:38.606Z,17.00
2023-05-16T23:51:07.467Z,17.20
2023-05-16T23:53:34.984Z,17.10
2023-05-16T23:56:01.751Z,17.20
2023-05-16T23:58:28.486Z,17.60
